Flight Track Log - Related Links

Times and Time Zones

All times are in EDT time to prevent confusion due to time zone crossing. See the WIS101 flight status page for this flight to view local times or setup timezone preferences in your user account.

Time Position Orientation Groundspeed Altitude Reporting Facility
EDT Latitude Longitude Course Direction KTS MPH feet Rate Location/Type
Mon 10:30:10 AM 46.8486 -100.7033 345° North 132 152 4,500  Level Minneapolis Center
Mon 10:31:12 AM 46.8842 -100.7186 344° North 131 151 5,100 581 Climbing Minneapolis Center
Mon 10:32:14 AM 46.9217 -100.7328 346° North 135 155 5,700 435 Climbing Minneapolis Center
Mon 10:33:00 AM 46.9369 -100.7256 343° North  Level FlightAware Approximate
Mon 10:33:16 AM 46.9589 -100.7497 343° North 138 159 6,000  Level Minneapolis Center
Mon 10:34:00 AM 46.9776 -100.7437 343° North  Level FlightAware Approximate
Mon 10:34:18 AM 46.9994 -100.7717 340° North 149 171 6,100  Level Minneapolis Center
Mon 10:35:20 AM 47.0403 -100.7992 335° Northwest 148 170 6,000 -48 Descending Minneapolis Center
Mon 10:36:22 AM 47.0775 -100.8189 340° North 141 162 6,000 49 Level Minneapolis Center
Mon 10:37:23 AM 47.1069 -100.8331 342° North 141 162 6,100 49 Climbing Minneapolis Center
Mon 10:38:25 AM 47.1556 -100.8494 347° North 143 165 6,100  Level Minneapolis Center
Mon 10:39:27 AM 47.1961 -100.8633 347° North 146 168 6,100  Level Minneapolis Center
Mon 10:40:29 AM 47.2367 -100.8756 348° North 146 168 6,100  Level Minneapolis Center
Mon 10:41:31 AM 47.2806 -100.8836 353° North 145 167 6,100  Level Minneapolis Center
Mon 10:42:33 AM 47.3214 -100.8958 349° North 147 169 6,100  Level Minneapolis Center
Mon 10:43:35 AM 47.3619 -100.9111 346° North 147 169 6,100  Level Minneapolis Center
Mon 10:44:37 AM 47.4025 -100.9247 347° North 146 168 6,100  Level Minneapolis Center
Mon 10:45:39 AM 47.4417 -100.9408 344° North 149 171 6,100  Level Minneapolis Center
Mon 10:47:00 AM 47.4966 -100.9633 349° North  Level FlightAware Approximate
Mon 10:54:00 AM 47.7837 -101.0792 344° North  Level FlightAware Approximate
Mon 10:55:00 AM 47.8245 -101.0970 344° North  Level FlightAware Approximate
Mon 10:56:00 AM 47.8653 -101.1149 344° North  Level FlightAware Approximate
Mon 10:57:00 AM 47.9062 -101.1328 344° North  Level FlightAware Approximate
Mon 10:58:00 AM 47.9470 -101.1507 344° North  Level FlightAware Approximate
Mon 10:59:00 AM 47.9878 -101.1689 342° North  Level FlightAware Approximate
Mon 11:00:00 AM 48.0287 -101.1833 North  Level FlightAware Approximate
Mon 11:01:00 AM 48.0599 -101.2033 347° North  Level FlightAware Approximate
Mon 11:02:00 AM 48.1014 -101.2171 347° North  Level FlightAware Approximate
Mon 11:03:00 AM 48.1429 -101.2309 347° North  Level FlightAware Approximate
Mon 11:04:00 AM 48.1845 -101.2448 347° North  Level FlightAware Approximate
Mon 11:05:00 AM 48.2260 -101.2586 347° North  Level FlightAware Approximate
Mon 11:06:00 AM 48.2500 -101.2667 347° North  Level FlightAware Approximate
Mon 11:07:00 AM 48.2576 -101.2780 347° North  Level Estimated
Mon 11:08:00 AM 48.2576 -101.2780 347° North  Level Estimated
Mon 11:09:00 AM 48.2576 -101.2780 347° North  Level Estimated
Mon 11:10:00 AM 48.2576 -101.2780 347° North  Level Estimated

Login

Don't have an account? Register now (free) for customized features, flight alerts, and more!